Salina Municipal Airport
KSLN : rendu visible

Aérodrome :











RETROUVEZ-NOUS SUR...

 
LOGIN :

S'inscrire | Disclaimer

   EN    FR    IT 

 









Légende :    VFR   VFR Marginal   IFR   IFR Intensif   IFR Très Intensif
Visi : 
Plafond : 
>= 8 km
>= 3000ft
5 à 8 km
1000 à 3000 ft
1500m à 5 km
500 à 1000 ft
800 à 1500m
200 à 500 ft
< 800m
< 200 ft
Symboles :   Orages  Brouillard  Fortes neiges  Fortes précipitations  Vent > 20 kt






- Altitude de l'aérodrome : 1288 ft
- Code IATA : SLN


KSLN - Salina Municipal

DERNIER METAR :
  • 090741Z AUTO 17012KT 10SM VCTS SCT120 27/19 A2990 RMK AO2 LTG DSNT ALQDS T02670189

METARs EXPIRÉS :
  • 090653Z AUTO 18010KT 10SM CLR 27/19 A2992 RMK AO2 SLP112 T02670194
  • 090553Z AUTO 17012KT 10SM CLR 27/19 A2991 RMK AO2 SLP110 T02720194 10339 20261 403720228 58002
  • 090453Z AUTO 16010KT 10SM CLR 27/21 A2991 RMK AO2 SLP112 T02670211

TAF KSLN
Valide du 09 à 08h jusqu'au 10 à 06h UTC


090731Z 0908/1006 18010KT P6SM VCTS SCT080CB BKN250
TEMPO 0908/0910 VRB15G30KT -TSRA BKN080CB
FM091100 19011KT P6SM SCT200
FM091500 19015G23KT P6SM FEW200
FM092000 19017KT P6SM SKC
FIR KZKC / Amérique du Nord



MET'MAP, la Météo Aéronautique d'un coup d'oeil ! - Copyright ORBIFLY Décembre 2007 - Disclaimer

ORBIFLY MET'MAP TEAM :

Programmation & Développement : Alexandra Zaïnal
Sur une idée originale de : Baudouin d'Aumeries
Assistance à la programmation : Marc-Olivier Méhu
Soutien technique & logistique : Manuel Goepfert

Contact : metmap@orbifly.com




SOURCES & CREDITS :

   NOAA       Earth
Advisory